sensor_id;sensor_type;location;lat;lon;timestamp;P1;durP1;ratioP1;P2;durP2;ratioP2
20478;SDS011;10398;52.490;13.434;2023-11-21T00:01:52;14.83;;;4.97;;
20478;SDS011;10398;52.490;13.434;2023-11-21T00:04:17;7.17;;;2.37;;
20478;SDS011;10398;52.490;13.434;2023-11-21T00:06:43;10.90;;;3.63;;
20478;SDS011;10398;52.490;13.434;2023-11-21T00:09:12;12.43;;;4.80;;
20478;SDS011;10398;52.490;13.434;2023-11-21T00:11:40;9.63;;;3.50;;
20478;SDS011;10398;52.490;13.434;2023-11-21T00:14:06;14.90;;;6.00;;
20478;SDS011;10398;52.490;13.434;2023-11-21T00:16:33;15.23;;;4.47;;
20478;SDS011;10398;52.490;13.434;2023-11-21T00:18:59;6.03;;;3.23;;
20478;SDS011;10398;52.490;13.434;2023-11-21T00:21:25;12.17;;;3.77;;
20478;SDS011;10398;52.490;13.434;2023-11-21T00:23:50;7.63;;;3.10;;
20478;SDS011;10398;52.490;13.434;2023-11-21T00:26:16;8.13;;;3.53;;
20478;SDS011;10398;52.490;13.434;2023-11-21T00:28:42;10.10;;;4.03;;
20478;SDS011;10398;52.490;13.434;2023-11-21T00:31:07;10.70;;;3.67;;
20478;SDS011;10398;52.490;13.434;2023-11-21T00:33:33;7.10;;;3.37;;
20478;SDS011;10398;52.490;13.434;2023-11-21T00:35:59;12.60;;;4.13;;
20478;SDS011;10398;52.490;13.434;2023-11-21T00:38:25;7.47;;;3.83;;
20478;SDS011;10398;52.490;13.434;2023-11-21T00:40:52;11.43;;;4.43;;
20478;SDS011;10398;52.490;13.434;2023-11-21T00:43:21;12.57;;;5.30;;
20478;SDS011;10398;52.490;13.434;2023-11-21T00:45:47;11.40;;;4.77;;
20478;SDS011;10398;52.490;13.434;2023-11-21T00:48:14;12.20;;;4.87;;
20478;SDS011;10398;52.490;13.434;2023-11-21T00:50:40;11.17;;;4.90;;
20478;SDS011;10398;52.490;13.434;2023-11-21T00:53:05;15.63;;;5.80;;
20478;SDS011;10398;52.490;13.434;2023-11-21T00:55:32;14.43;;;5.80;;
20478;SDS011;10398;52.490;13.434;2023-11-21T00:57:59;12.70;;;5.10;;
20478;SDS011;10398;52.490;13.434;2023-11-21T01:00:28;16.10;;;6.33;;
20478;SDS011;10398;52.490;13.434;2023-11-21T01:02:53;19.93;;;6.30;;
20478;SDS011;10398;52.490;13.434;2023-11-21T01:05:19;18.57;;;6.13;;
20478;SDS011;10398;52.490;13.434;2023-11-21T01:07:45;18.57;;;6.07;;
20478;SDS011;10398;52.490;13.434;2023-11-21T01:10:10;20.80;;;6.23;;
20478;SDS011;10398;52.490;13.434;2023-11-21T01:12:36;23.87;;;5.83;;
20478;SDS011;10398;52.490;13.434;2023-11-21T01:15:04;18.07;;;5.00;;
20478;SDS011;10398;52.490;13.434;2023-11-21T01:17:32;19.17;;;5.33;;
20478;SDS011;10398;52.490;13.434;2023-11-21T01:19:59;21.37;;;6.50;;
20478;SDS011;10398;52.490;13.434;2023-11-21T01:22:26;19.57;;;6.43;;
20478;SDS011;10398;52.490;13.434;2023-11-21T01:24:52;12.83;;;5.53;;
20478;SDS011;10398;52.490;13.434;2023-11-21T01:27:18;17.07;;;6.00;;
20478;SDS011;10398;52.490;13.434;2023-11-21T01:29:44;22.23;;;5.67;;
20478;SDS011;10398;52.490;13.434;2023-11-21T01:32:10;20.23;;;6.40;;
20478;SDS011;10398;52.490;13.434;2023-11-21T01:47:14;27.80;;;8.53;;
20478;SDS011;10398;52.490;13.434;2023-11-21T01:49:42;34.80;;;9.10;;
20478;SDS011;10398;52.490;13.434;2023-11-21T01:52:09;28.43;;;7.53;;
20478;SDS011;10398;52.490;13.434;2023-11-21T01:54:36;21.83;;;8.00;;
20478;SDS011;10398;52.490;13.434;2023-11-21T01:57:02;29.13;;;7.77;;
20478;SDS011;10398;52.490;13.434;2023-11-21T01:59:33;23.73;;;7.53;;
20478;SDS011;10398;52.490;13.434;2023-11-21T02:02:03;29.17;;;7.77;;
20478;SDS011;10398;52.490;13.434;2023-11-21T02:04:31;19.83;;;7.30;;
20478;SDS011;10398;52.490;13.434;2023-11-21T02:07:00;21.63;;;5.93;;
20478;SDS011;10398;52.490;13.434;2023-11-21T02:09:26;23.87;;;6.47;;
20478;SDS011;10398;52.490;13.434;2023-11-21T02:11:55;17.30;;;6.77;;
20478;SDS011;10398;52.490;13.434;2023-11-21T02:14:21;23.47;;;5.83;;
20478;SDS011;10398;52.490;13.434;2023-11-21T02:16:48;17.47;;;6.17;;
20478;SDS011;10398;52.490;13.434;2023-11-21T02:19:17;13.40;;;5.50;;
20478;SDS011;10398;52.490;13.434;2023-11-21T02:21:54;15.67;;;4.80;;
20478;SDS011;10398;52.490;13.434;2023-11-21T02:24:24;14.57;;;4.50;;
20478;SDS011;10398;52.490;13.434;2023-11-21T02:26:50;14.13;;;5.10;;
20478;SDS011;10398;52.490;13.434;2023-11-21T02:29:17;12.27;;;4.47;;
20478;SDS011;10398;52.490;13.434;2023-11-21T02:31:43;15.53;;;5.20;;
20478;SDS011;10398;52.490;13.434;2023-11-21T02:34:14;17.70;;;5.30;;
20478;SDS011;10398;52.490;13.434;2023-11-21T02:36:41;16.93;;;4.70;;
20478;SDS011;10398;52.490;13.434;2023-11-21T02:39:07;16.83;;;5.67;;
20478;SDS011;10398;52.490;13.434;2023-11-21T02:41:33;18.03;;;4.93;;
20478;SDS011;10398;52.490;13.434;2023-11-21T02:43:59;17.20;;;5.53;;
20478;SDS011;10398;52.490;13.434;2023-11-21T02:46:25;18.23;;;4.17;;
20478;SDS011;10398;52.490;13.434;2023-11-21T02:48:51;10.83;;;4.83;;
20478;SDS011;10398;52.490;13.434;2023-11-21T02:51:19;14.53;;;5.43;;
20478;SDS011;10398;52.490;13.434;2023-11-21T02:53:44;16.33;;;4.83;;
20478;SDS011;10398;52.490;13.434;2023-11-21T02:56:11;16.03;;;4.60;;
20478;SDS011;10398;52.490;13.434;2023-11-21T02:58:37;11.10;;;4.17;;
20478;SDS011;10398;52.490;13.434;2023-11-21T03:01:06;9.57;;;3.63;;
20478;SDS011;10398;52.490;13.434;2023-11-21T03:03:32;7.93;;;4.00;;
20478;SDS011;10398;52.490;13.434;2023-11-21T03:05:58;9.87;;;3.70;;
20478;SDS011;10398;52.490;13.434;2023-11-21T03:08:23;10.67;;;3.70;;
20478;SDS011;10398;52.490;13.434;2023-11-21T03:10:49;8.70;;;3.27;;
20478;SDS011;10398;52.490;13.434;2023-11-21T03:13:14;12.90;;;3.67;;
20478;SDS011;10398;52.490;13.434;2023-11-21T03:15:40;9.13;;;4.10;;
20478;SDS011;10398;52.490;13.434;2023-11-21T03:18:05;12.73;;;3.53;;
20478;SDS011;10398;52.490;13.434;2023-11-21T03:20:31;9.07;;;3.37;;
20478;SDS011;10398;52.490;13.434;2023-11-21T03:22:56;10.33;;;3.73;;
20478;SDS011;10398;52.490;13.434;2023-11-21T03:25:24;9.13;;;3.20;;
20478;SDS011;10398;52.490;13.434;2023-11-21T03:27:50;8.63;;;3.87;;
20478;SDS011;10398;52.490;13.434;2023-11-21T03:30:16;13.00;;;4.87;;
20478;SDS011;10398;52.490;13.434;2023-11-21T03:32:41;11.17;;;3.67;;
20478;SDS011;10398;52.490;13.434;2023-11-21T03:35:07;5.73;;;2.80;;
20478;SDS011;10398;52.490;13.434;2023-11-21T03:37:33;11.90;;;3.70;;
20478;SDS011;10398;52.490;13.434;2023-11-21T03:39:58;5.63;;;3.13;;
20478;SDS011;10398;52.490;13.434;2023-11-21T03:42:24;9.80;;;3.47;;
20478;SDS011;10398;52.490;13.434;2023-11-21T03:44:53;7.50;;;3.00;;
20478;SDS011;10398;52.490;13.434;2023-11-21T03:47:19;6.07;;;3.40;;
20478;SDS011;10398;52.490;13.434;2023-11-21T03:49:44;6.37;;;3.00;;
20478;SDS011;10398;52.490;13.434;2023-11-21T03:52:10;6.97;;;3.10;;
20478;SDS011;10398;52.490;13.434;2023-11-21T03:54:36;7.40;;;3.27;;
20478;SDS011;10398;52.490;13.434;2023-11-21T03:57:02;7.67;;;3.40;;
20478;SDS011;10398;52.490;13.434;2023-11-21T03:59:28;8.50;;;2.83;;
20478;SDS011;10398;52.490;13.434;2023-11-21T04:01:57;5.97;;;2.60;;
20478;SDS011;10398;52.490;13.434;2023-11-21T04:04:23;6.40;;;3.10;;
20478;SDS011;10398;52.490;13.434;2023-11-21T04:06:48;10.67;;;3.67;;
20478;SDS011;10398;52.490;13.434;2023-11-21T04:09:14;8.17;;;3.20;;
20478;SDS011;10398;52.490;13.434;2023-11-21T04:11:39;6.30;;;2.80;;
20478;SDS011;10398;52.490;13.434;2023-11-21T04:14:05;7.27;;;2.77;;
20478;SDS011;10398;52.490;13.434;2023-11-21T04:16:31;6.50;;;2.90;;
20478;SDS011;10398;52.490;13.434;2023-11-21T04:18:56;5.50;;;2.27;;
20478;SDS011;10398;52.490;13.434;2023-11-21T04:21:22;7.10;;;3.23;;
20478;SDS011;10398;52.490;13.434;2023-11-21T04:23:49;7.00;;;2.87;;
20478;SDS011;10398;52.490;13.434;2023-11-21T04:26:14;5.27;;;2.53;;
20478;SDS011;10398;52.490;13.434;2023-11-21T04:28:40;6.33;;;2.70;;
20478;SDS011;10398;52.490;13.434;2023-11-21T04:31:06;6.80;;;2.70;;
20478;SDS011;10398;52.490;13.434;2023-11-21T04:33:32;6.70;;;2.70;;
20478;SDS011;10398;52.490;13.434;2023-11-21T04:35:58;4.30;;;2.07;;
20478;SDS011;10398;52.490;13.434;2023-11-21T04:38:23;4.63;;;2.13;;
20478;SDS011;10398;52.490;13.434;2023-11-21T04:40:49;6.30;;;1.90;;
20478;SDS011;10398;52.490;13.434;2023-11-21T04:43:15;5.47;;;2.80;;
20478;SDS011;10398;52.490;13.434;2023-11-21T04:45:41;5.80;;;2.63;;
20478;SDS011;10398;52.490;13.434;2023-11-21T04:48:07;7.17;;;2.97;;
20478;SDS011;10398;52.490;13.434;2023-11-21T04:50:33;6.47;;;2.30;;
20478;SDS011;10398;52.490;13.434;2023-11-21T04:52:59;4.60;;;2.27;;
20478;SDS011;10398;52.490;13.434;2023-11-21T04:55:25;7.47;;;2.70;;
20478;SDS011;10398;52.490;13.434;2023-11-21T04:57:53;7.57;;;2.93;;
20478;SDS011;10398;52.490;13.434;2023-11-21T05:00:19;4.47;;;2.43;;
20478;SDS011;10398;52.490;13.434;2023-11-21T05:02:46;5.27;;;2.20;;
20478;SDS011;10398;52.490;13.434;2023-11-21T05:05:12;7.57;;;3.23;;
20478;SDS011;10398;52.490;13.434;2023-11-21T05:07:38;4.60;;;2.20;;
20478;SDS011;10398;52.490;13.434;2023-11-21T05:10:07;6.33;;;2.67;;
20478;SDS011;10398;52.490;13.434;2023-11-21T05:12:35;5.97;;;1.90;;
20478;SDS011;10398;52.490;13.434;2023-11-21T05:15:04;4.00;;;1.97;;
20478;SDS011;10398;52.490;13.434;2023-11-21T05:17:33;6.17;;;2.50;;
20478;SDS011;10398;52.490;13.434;2023-11-21T05:20:00;3.33;;;1.73;;
20478;SDS011;10398;52.490;13.434;2023-11-21T05:22:28;6.43;;;1.97;;
20478;SDS011;10398;52.490;13.434;2023-11-21T05:24:54;6.60;;;2.23;;
20478;SDS011;10398;52.490;13.434;2023-11-21T05:27:19;6.00;;;2.23;;
20478;SDS011;10398;52.490;13.434;2023-11-21T05:29:45;5.47;;;2.70;;
20478;SDS011;10398;52.490;13.434;2023-11-21T05:32:11;5.23;;;2.57;;
20478;SDS011;10398;52.490;13.434;2023-11-21T05:34:36;7.07;;;2.03;;
20478;SDS011;10398;52.490;13.434;2023-11-21T05:37:02;5.13;;;2.30;;
20478;SDS011;10398;52.490;13.434;2023-11-21T05:39:27;4.07;;;2.00;;
20478;SDS011;10398;52.490;13.434;2023-11-21T05:41:53;5.37;;;2.50;;
20478;SDS011;10398;52.490;13.434;2023-11-21T05:44:19;5.03;;;2.00;;
20478;SDS011;10398;52.490;13.434;2023-11-21T05:46:44;4.13;;;1.93;;
20478;SDS011;10398;52.490;13.434;2023-11-21T05:49:10;6.90;;;2.67;;
20478;SDS011;10398;52.490;13.434;2023-11-21T05:51:36;4.87;;;2.60;;
20478;SDS011;10398;52.490;13.434;2023-11-21T05:54:03;7.70;;;2.00;;
20478;SDS011;10398;52.490;13.434;2023-11-21T05:56:28;3.20;;;1.50;;
20478;SDS011;10398;52.490;13.434;2023-11-21T05:58:54;3.93;;;1.93;;
20478;SDS011;10398;52.490;13.434;2023-11-21T06:01:20;4.87;;;2.03;;
20478;SDS011;10398;52.490;13.434;2023-11-21T06:03:45;7.43;;;2.93;;
20478;SDS011;10398;52.490;13.434;2023-11-21T06:06:11;7.37;;;2.80;;
20478;SDS011;10398;52.490;13.434;2023-11-21T06:08:37;6.67;;;2.60;;
20478;SDS011;10398;52.490;13.434;2023-11-21T06:11:02;6.20;;;2.40;;
20478;SDS011;10398;52.490;13.434;2023-11-21T06:13:28;9.27;;;2.63;;
20478;SDS011;10398;52.490;13.434;2023-11-21T06:15:53;8.33;;;2.73;;
20478;SDS011;10398;52.490;13.434;2023-11-21T06:18:20;5.80;;;2.63;;
20478;SDS011;10398;52.490;13.434;2023-11-21T06:20:46;5.80;;;2.37;;
20478;SDS011;10398;52.490;13.434;2023-11-21T06:23:11;5.80;;;3.20;;
20478;SDS011;10398;52.490;13.434;2023-11-21T06:25:37;4.77;;;2.60;;
20478;SDS011;10398;52.490;13.434;2023-11-21T06:28:03;8.17;;;3.07;;
20478;SDS011;10398;52.490;13.434;2023-11-21T06:30:29;6.80;;;2.47;;
20478;SDS011;10398;52.490;13.434;2023-11-21T06:32:54;6.60;;;2.97;;
20478;SDS011;10398;52.490;13.434;2023-11-21T06:35:21;6.70;;;1.97;;
20478;SDS011;10398;52.490;13.434;2023-11-21T06:37:47;5.20;;;1.90;;
20478;SDS011;10398;52.490;13.434;2023-11-21T06:40:13;4.67;;;2.10;;
20478;SDS011;10398;52.490;13.434;2023-11-21T06:42:43;5.07;;;2.10;;
20478;SDS011;10398;52.490;13.434;2023-11-21T06:45:09;6.57;;;2.53;;
20478;SDS011;10398;52.490;13.434;2023-11-21T06:47:36;4.90;;;2.27;;
20478;SDS011;10398;52.490;13.434;2023-11-21T06:50:03;4.13;;;2.13;;
20478;SDS011;10398;52.490;13.434;2023-11-21T06:52:29;6.57;;;2.00;;
20478;SDS011;10398;52.490;13.434;2023-11-21T06:54:55;15.30;;;5.30;;
20478;SDS011;10398;52.490;13.434;2023-11-21T06:57:22;9.87;;;3.90;;
20478;SDS011;10398;52.490;13.434;2023-11-21T06:59:48;7.53;;;2.37;;
20478;SDS011;10398;52.490;13.434;2023-11-21T07:02:15;5.40;;;2.40;;
20478;SDS011;10398;52.490;13.434;2023-11-21T07:04:43;4.83;;;2.00;;
20478;SDS011;10398;52.490;13.434;2023-11-21T07:07:11;6.80;;;2.33;;
20478;SDS011;10398;52.490;13.434;2023-11-21T07:09:37;4.83;;;2.33;;
20478;SDS011;10398;52.490;13.434;2023-11-21T07:12:03;5.23;;;2.07;;
20478;SDS011;10398;52.490;13.434;2023-11-21T07:14:32;4.50;;;1.93;;
20478;SDS011;10398;52.490;13.434;2023-11-21T07:17:02;2.90;;;1.60;;
20478;SDS011;10398;52.490;13.434;2023-11-21T07:19:27;5.87;;;2.47;;
20478;SDS011;10398;52.490;13.434;2023-11-21T07:21:54;3.80;;;2.13;;
20478;SDS011;10398;52.490;13.434;2023-11-21T07:24:20;7.23;;;1.93;;
20478;SDS011;10398;52.490;13.434;2023-11-21T07:26:46;4.03;;;1.87;;
20478;SDS011;10398;52.490;13.434;2023-11-21T07:29:13;12.37;;;2.27;;
20478;SDS011;10398;52.490;13.434;2023-11-21T07:31:38;5.93;;;2.10;;
20478;SDS011;10398;52.490;13.434;2023-11-21T07:34:04;3.30;;;1.47;;
20478;SDS011;10398;52.490;13.434;2023-11-21T07:36:30;4.73;;;1.63;;
20478;SDS011;10398;52.490;13.434;2023-11-21T07:38:56;9.33;;;2.00;;
20478;SDS011;10398;52.490;13.434;2023-11-21T07:41:22;11.73;;;1.53;;
20478;SDS011;10398;52.490;13.434;2023-11-21T07:43:47;4.77;;;2.23;;
20478;SDS011;10398;52.490;13.434;2023-11-21T07:46:13;5.43;;;1.63;;
20478;SDS011;10398;52.490;13.434;2023-11-21T07:48:40;5.60;;;1.87;;
20478;SDS011;10398;52.490;13.434;2023-11-21T07:51:07;3.67;;;1.67;;
20478;SDS011;10398;52.490;13.434;2023-11-21T07:53:33;3.57;;;2.00;;
20478;SDS011;10398;52.490;13.434;2023-11-21T07:56:03;4.90;;;2.70;;
20478;SDS011;10398;52.490;13.434;2023-11-21T07:58:35;4.57;;;2.23;;
20478;SDS011;10398;52.490;13.434;2023-11-21T08:01:02;4.50;;;1.83;;
20478;SDS011;10398;52.490;13.434;2023-11-21T08:03:28;5.70;;;1.83;;
20478;SDS011;10398;52.490;13.434;2023-11-21T08:05:57;5.83;;;2.30;;
20478;SDS011;10398;52.490;13.434;2023-11-21T08:08:23;3.90;;;1.37;;
20478;SDS011;10398;52.490;13.434;2023-11-21T08:10:49;3.03;;;1.87;;
20478;SDS011;10398;52.490;13.434;2023-11-21T08:13:21;4.70;;;1.90;;
20478;SDS011;10398;52.490;13.434;2023-11-21T08:15:53;8.47;;;2.30;;
20478;SDS011;10398;52.490;13.434;2023-11-21T08:18:19;5.33;;;1.63;;
20478;SDS011;10398;52.490;13.434;2023-11-21T08:20:46;2.97;;;1.43;;
20478;SDS011;10398;52.490;13.434;2023-11-21T08:23:17;8.83;;;1.87;;
20478;SDS011;10398;52.490;13.434;2023-11-21T08:25:43;3.17;;;1.37;;
20478;SDS011;10398;52.490;13.434;2023-11-21T08:28:09;3.47;;;1.67;;
20478;SDS011;10398;52.490;13.434;2023-11-21T08:30:35;7.83;;;2.17;;
20478;SDS011;10398;52.490;13.434;2023-11-21T08:33:01;6.13;;;2.43;;
20478;SDS011;10398;52.490;13.434;2023-11-21T08:35:28;6.70;;;2.60;;
20478;SDS011;10398;52.490;13.434;2023-11-21T08:37:54;6.83;;;2.40;;
20478;SDS011;10398;52.490;13.434;2023-11-21T08:40:20;4.30;;;1.97;;
20478;SDS011;10398;52.490;13.434;2023-11-21T08:42:46;4.23;;;1.90;;
20478;SDS011;10398;52.490;13.434;2023-11-21T08:45:13;5.57;;;2.43;;
20478;SDS011;10398;52.490;13.434;2023-11-21T08:47:39;7.90;;;1.80;;
20478;SDS011;10398;52.490;13.434;2023-11-21T08:50:06;8.37;;;2.53;;
20478;SDS011;10398;52.490;13.434;2023-11-21T08:52:33;9.50;;;2.97;;
20478;SDS011;10398;52.490;13.434;2023-11-21T08:54:59;8.27;;;2.13;;
20478;SDS011;10398;52.490;13.434;2023-11-21T08:57:27;11.30;;;3.07;;
20478;SDS011;10398;52.490;13.434;2023-11-21T08:59:53;7.00;;;2.67;;
20478;SDS011;10398;52.490;13.434;2023-11-21T09:02:25;5.77;;;2.17;;
20478;SDS011;10398;52.490;13.434;2023-11-21T09:04:51;5.33;;;2.07;;
20478;SDS011;10398;52.490;13.434;2023-11-21T09:07:18;9.13;;;2.63;;
20478;SDS011;10398;52.490;13.434;2023-11-21T09:09:45;9.80;;;2.33;;
20478;SDS011;10398;52.490;13.434;2023-11-21T09:12:11;10.10;;;2.80;;
20478;SDS011;10398;52.490;13.434;2023-11-21T09:14:37;8.90;;;2.87;;
20478;SDS011;10398;52.490;13.434;2023-11-21T09:17:04;6.03;;;2.40;;
20478;SDS011;10398;52.490;13.434;2023-11-21T09:19:35;10.30;;;3.40;;
20478;SDS011;10398;52.490;13.434;2023-11-21T09:22:02;12.97;;;2.93;;
20478;SDS011;10398;52.490;13.434;2023-11-21T09:24:27;8.63;;;2.73;;
20478;SDS011;10398;52.490;13.434;2023-11-21T09:26:53;5.97;;;2.37;;
20478;SDS011;10398;52.490;13.434;2023-11-21T09:29:19;8.90;;;2.50;;
20478;SDS011;10398;52.490;13.434;2023-11-21T09:31:44;10.13;;;2.73;;
20478;SDS011;10398;52.490;13.434;2023-11-21T09:34:10;7.27;;;2.07;;
20478;SDS011;10398;52.490;13.434;2023-11-21T09:36:36;5.20;;;1.90;;
20478;SDS011;10398;52.490;13.434;2023-11-21T09:39:04;8.27;;;2.40;;
20478;SDS011;10398;52.490;13.434;2023-11-21T09:44:32;11.20;;;2.43;;
20478;SDS011;10398;52.490;13.434;2023-11-21T09:47:07;12.67;;;2.27;;
20478;SDS011;10398;52.490;13.434;2023-11-21T09:49:35;7.03;;;2.37;;
20478;SDS011;10398;52.490;13.434;2023-11-21T09:52:03;5.30;;;1.50;;
20478;SDS011;10398;52.490;13.434;2023-11-21T09:54:31;5.43;;;2.00;;
20478;SDS011;10398;52.490;13.434;2023-11-21T09:56:58;3.43;;;1.50;;
20478;SDS011;10398;52.490;13.434;2023-11-21T09:59:24;2.97;;;1.20;;
20478;SDS011;10398;52.490;13.434;2023-11-21T10:01:59;2.30;;;1.00;;
20478;SDS011;10398;52.490;13.434;2023-11-21T10:04:25;4.00;;;1.13;;
20478;SDS011;10398;52.490;13.434;2023-11-21T10:06:51;2.17;;;0.90;;
20478;SDS011;10398;52.490;13.434;2023-11-21T10:09:19;2.57;;;1.20;;
20478;SDS011;10398;52.490;13.434;2023-11-21T10:11:45;5.10;;;1.07;;
20478;SDS011;10398;52.490;13.434;2023-11-21T10:14:14;2.70;;;0.67;;
20478;SDS011;10398;52.490;13.434;2023-11-21T10:16:43;1.43;;;0.93;;
20478;SDS011;10398;52.490;13.434;2023-11-21T10:19:12;1.60;;;0.90;;
20478;SDS011;10398;52.490;13.434;2023-11-21T10:21:38;1.30;;;0.67;;
20478;SDS011;10398;52.490;13.434;2023-11-21T10:24:04;2.30;;;0.80;;
20478;SDS011;10398;52.490;13.434;2023-11-21T10:26:31;1.70;;;1.03;;
20478;SDS011;10398;52.490;13.434;2023-11-21T10:28:58;3.40;;;1.07;;
20478;SDS011;10398;52.490;13.434;2023-11-21T10:31:28;1.37;;;0.90;;
20478;SDS011;10398;52.490;13.434;2023-11-21T10:34:19;5.33;;;1.33;;
20478;SDS011;10398;52.490;13.434;2023-11-21T10:36:44;1.93;;;0.83;;
20478;SDS011;10398;52.490;13.434;2023-11-21T10:39:17;4.07;;;1.10;;
20478;SDS011;10398;52.490;13.434;2023-11-21T10:41:47;2.53;;;1.03;;
20478;SDS011;10398;52.490;13.434;2023-11-21T10:44:14;2.37;;;1.20;;
20478;SDS011;10398;52.490;13.434;2023-11-21T10:46:52;5.27;;;0.90;;
20478;SDS011;10398;52.490;13.434;2023-11-21T10:49:30;1.23;;;1.13;;
20478;SDS011;10398;52.490;13.434;2023-11-21T10:51:56;1.47;;;0.90;;
20478;SDS011;10398;52.490;13.434;2023-11-21T10:54:22;2.17;;;0.90;;
20478;SDS011;10398;52.490;13.434;2023-11-21T10:56:52;1.80;;;0.87;;
20478;SDS011;10398;52.490;13.434;2023-11-21T10:59:28;1.67;;;0.70;;
20478;SDS011;10398;52.490;13.434;2023-11-21T11:01:54;1.97;;;0.90;;
20478;SDS011;10398;52.490;13.434;2023-11-21T11:04:23;2.17;;;1.37;;
20478;SDS011;10398;52.490;13.434;2023-11-21T11:06:55;9.07;;;1.43;;
20478;SDS011;10398;52.490;13.434;2023-11-21T11:09:22;1.67;;;1.10;;
20478;SDS011;10398;52.490;13.434;2023-11-21T11:11:48;7.53;;;1.43;;
20478;SDS011;10398;52.490;13.434;2023-11-21T11:14:16;2.63;;;0.93;;
20478;SDS011;10398;52.490;13.434;2023-11-21T11:16:44;2.90;;;0.93;;
20478;SDS011;10398;52.490;13.434;2023-11-21T11:19:10;2.70;;;1.70;;
20478;SDS011;10398;52.490;13.434;2023-11-21T11:21:40;2.13;;;1.10;;
20478;SDS011;10398;52.490;13.434;2023-11-21T11:29:39;2.80;;;1.13;;
20478;SDS011;10398;52.490;13.434;2023-11-21T11:32:15;2.13;;;1.10;;
20478;SDS011;10398;52.490;13.434;2023-11-21T11:35:18;2.30;;;1.00;;
20478;SDS011;10398;52.490;13.434;2023-11-21T11:37:51;4.20;;;1.40;;
20478;SDS011;10398;52.490;13.434;2023-11-21T11:40:18;1.57;;;1.00;;
20478;SDS011;10398;52.490;13.434;2023-11-21T11:43:00;2.23;;;1.20;;
20478;SDS011;10398;52.490;13.434;2023-11-21T11:45:33;3.90;;;1.30;;
20478;SDS011;10398;52.490;13.434;2023-11-21T11:48:06;2.83;;;1.47;;
20478;SDS011;10398;52.490;13.434;2023-11-21T11:50:32;4.30;;;1.70;;
20478;SDS011;10398;52.490;13.434;2023-11-21T11:53:12;4.30;;;1.30;;
20478;SDS011;10398;52.490;13.434;2023-11-21T11:55:38;2.17;;;1.17;;
20478;SDS011;10398;52.490;13.434;2023-11-21T11:58:05;5.37;;;1.27;;
20478;SDS011;10398;52.490;13.434;2023-11-21T12:02:58;10.80;;;1.37;;
20478;SDS011;10398;52.490;13.434;2023-11-21T12:05:28;2.90;;;1.87;;
20478;SDS011;10398;52.490;13.434;2023-11-21T12:08:01;3.67;;;1.63;;
20478;SDS011;10398;52.490;13.434;2023-11-21T12:10:32;2.20;;;1.43;;
20478;SDS011;10398;52.490;13.434;2023-11-21T12:13:05;3.13;;;1.50;;
20478;SDS011;10398;52.490;13.434;2023-11-21T12:15:35;2.63;;;1.67;;
20478;SDS011;10398;52.490;13.434;2023-11-21T12:18:01;3.23;;;1.57;;
20478;SDS011;10398;52.490;13.434;2023-11-21T12:20:28;3.53;;;1.13;;
20478;SDS011;10398;52.490;13.434;2023-11-21T12:22:56;2.50;;;1.10;;
20478;SDS011;10398;52.490;13.434;2023-11-21T12:25:26;2.40;;;1.27;;
20478;SDS011;10398;52.490;13.434;2023-11-21T12:27:54;2.67;;;1.17;;
20478;SDS011;10398;52.490;13.434;2023-11-21T12:30:22;3.30;;;0.93;;
20478;SDS011;10398;52.490;13.434;2023-11-21T12:32:49;1.93;;;1.10;;
20478;SDS011;10398;52.490;13.434;2023-11-21T12:35:19;2.90;;;1.03;;
20478;SDS011;10398;52.490;13.434;2023-11-21T12:37:47;2.77;;;1.03;;
20478;SDS011;10398;52.490;13.434;2023-11-21T12:40:13;1.67;;;1.30;;
20478;SDS011;10398;52.490;13.434;2023-11-21T12:42:47;5.93;;;1.93;;
20478;SDS011;10398;52.490;13.434;2023-11-21T12:47:47;3.00;;;1.10;;
20478;SDS011;10398;52.490;13.434;2023-11-21T12:50:15;4.43;;;1.50;;
20478;SDS011;10398;52.490;13.434;2023-11-21T12:52:47;5.23;;;1.00;;
20478;SDS011;10398;52.490;13.434;2023-11-21T12:55:22;3.57;;;1.07;;
20478;SDS011;10398;52.490;13.434;2023-11-21T12:57:49;1.63;;;1.20;;
20478;SDS011;10398;52.490;13.434;2023-11-21T13:00:19;2.47;;;0.93;;
20478;SDS011;10398;52.490;13.434;2023-11-21T13:02:55;1.73;;;0.70;;
20478;SDS011;10398;52.490;13.434;2023-11-21T13:05:32;2.93;;;1.23;;
20478;SDS011;10398;52.490;13.434;2023-11-21T13:07:59;1.87;;;1.00;;
20478;SDS011;10398;52.490;13.434;2023-11-21T13:10:32;3.50;;;1.50;;
20478;SDS011;10398;52.490;13.434;2023-11-21T13:13:01;1.80;;;1.00;;
20478;SDS011;10398;52.490;13.434;2023-11-21T13:15:30;1.70;;;1.10;;
20478;SDS011;10398;52.490;13.434;2023-11-21T13:17:57;1.20;;;0.60;;
20478;SDS011;10398;52.490;13.434;2023-11-21T13:20:24;4.30;;;1.37;;
20478;SDS011;10398;52.490;13.434;2023-11-21T13:22:54;4.47;;;1.53;;
20478;SDS011;10398;52.490;13.434;2023-11-21T13:25:24;3.07;;;1.03;;
20478;SDS011;10398;52.490;13.434;2023-11-21T13:27:54;1.77;;;1.00;;
20478;SDS011;10398;52.490;13.434;2023-11-21T13:30:20;4.03;;;0.97;;
20478;SDS011;10398;52.490;13.434;2023-11-21T13:32:52;2.43;;;1.60;;
20478;SDS011;10398;52.490;13.434;2023-11-21T13:35:22;2.47;;;1.03;;
20478;SDS011;10398;52.490;13.434;2023-11-21T13:37:56;3.23;;;1.10;;
20478;SDS011;10398;52.490;13.434;2023-11-21T13:40:25;2.63;;;1.43;;
20478;SDS011;10398;52.490;13.434;2023-11-21T13:42:52;2.57;;;1.53;;
20478;SDS011;10398;52.490;13.434;2023-11-21T13:45:21;5.87;;;2.47;;
20478;SDS011;10398;52.490;13.434;2023-11-21T13:47:52;4.97;;;1.93;;
20478;SDS011;10398;52.490;13.434;2023-11-21T13:50:25;5.97;;;2.00;;
20478;SDS011;10398;52.490;13.434;2023-11-21T13:52:58;3.90;;;1.70;;
20478;SDS011;10398;52.490;13.434;2023-11-21T13:55:29;4.23;;;1.80;;
20478;SDS011;10398;52.490;13.434;2023-11-21T13:57:54;3.40;;;1.57;;
20478;SDS011;10398;52.490;13.434;2023-11-21T14:00:20;3.73;;;1.63;;
20478;SDS011;10398;52.490;13.434;2023-11-21T14:03:04;4.83;;;2.27;;
20478;SDS011;10398;52.490;13.434;2023-11-21T14:05:34;7.50;;;2.00;;
20478;SDS011;10398;52.490;13.434;2023-11-21T14:07:59;4.30;;;1.97;;
20478;SDS011;10398;52.490;13.434;2023-11-21T14:10:32;3.77;;;2.00;;
20478;SDS011;10398;52.490;13.434;2023-11-21T14:13:05;8.43;;;3.23;;
20478;SDS011;10398;52.490;13.434;2023-11-21T14:15:31;9.47;;;3.70;;
20478;SDS011;10398;52.490;13.434;2023-11-21T14:17:58;7.23;;;3.50;;
20478;SDS011;10398;52.490;13.434;2023-11-21T14:20:27;5.77;;;2.23;;
20478;SDS011;10398;52.490;13.434;2023-11-21T14:22:54;7.00;;;3.07;;
20478;SDS011;10398;52.490;13.434;2023-11-21T14:25:19;4.13;;;2.40;;
20478;SDS011;10398;52.490;13.434;2023-11-21T14:27:47;5.57;;;2.53;;
20478;SDS011;10398;52.490;13.434;2023-11-21T14:30:13;7.70;;;2.90;;
20478;SDS011;10398;52.490;13.434;2023-11-21T14:32:43;9.77;;;3.53;;
20478;SDS011;10398;52.490;13.434;2023-11-21T14:35:08;6.97;;;3.83;;
20478;SDS011;10398;52.490;13.434;2023-11-21T14:37:34;8.93;;;4.03;;
20478;SDS011;10398;52.490;13.434;2023-11-21T14:40:00;8.60;;;4.07;;
20478;SDS011;10398;52.490;13.434;2023-11-21T14:42:26;7.27;;;3.27;;
20478;SDS011;10398;52.490;13.434;2023-11-21T14:44:54;9.93;;;4.50;;
20478;SDS011;10398;52.490;13.434;2023-11-21T14:47:25;10.20;;;4.70;;
20478;SDS011;10398;52.490;13.434;2023-11-21T14:49:52;13.17;;;4.37;;
20478;SDS011;10398;52.490;13.434;2023-11-21T14:52:20;12.53;;;5.00;;
20478;SDS011;10398;52.490;13.434;2023-11-21T14:54:59;9.57;;;4.40;;
20478;SDS011;10398;52.490;13.434;2023-11-21T14:57:44;11.67;;;5.83;;
20478;SDS011;10398;52.490;13.434;2023-11-21T15:00:15;11.10;;;4.90;;